createdAt,value
2018-08-09T00:01:29.369Z,99808.58
2018-08-09T00:03:57.077Z,99816.30
2018-08-09T00:06:24.734Z,99810.45
2018-08-09T00:08:52.382Z,99809.64
2018-08-09T00:11:20.073Z,99817.89
2018-08-09T00:13:47.749Z,99814.83
2018-08-09T00:16:15.442Z,99813.98
2018-08-09T00:18:43.083Z,99815.08
2018-08-09T00:21:10.792Z,99817.55
2018-08-09T00:23:38.434Z,99811.52
2018-08-09T00:26:06.177Z,99812.89
2018-08-09T00:28:33.841Z,99815.66
2018-08-09T00:31:01.531Z,99812.36
2018-08-09T00:33:29.468Z,99818.41
2018-08-09T00:35:57.168Z,99825.04
2018-08-09T00:38:24.820Z,99826.95
2018-08-09T00:40:52.496Z,99818.97
2018-08-09T00:43:20.265Z,99826.36
2018-08-09T00:45:48.001Z,99825.53
2018-08-09T00:48:15.695Z,99826.55
2018-08-09T00:50:43.344Z,99824.28
2018-08-09T00:53:11.041Z,99820.94
2018-08-09T00:55:38.681Z,99826.92
2018-08-09T00:58:06.354Z,99830.23
2018-08-09T01:00:34.001Z,99829.46
2018-08-09T01:03:01.639Z,99828.41
2018-08-09T01:05:29.277Z,99842.39
2018-08-09T01:07:56.913Z,99836.56
2018-08-09T01:10:24.621Z,99839.86
2018-08-09T01:12:52.300Z,99841.32
2018-08-09T01:15:19.968Z,99840.13
2018-08-09T01:17:47.627Z,99835.76
2018-08-09T01:20:15.305Z,99835.14
2018-08-09T01:22:42.969Z,99835.63
2018-08-09T01:25:10.674Z,99829.66
2018-08-09T01:27:38.321Z,99832.66
2018-08-09T01:30:06.014Z,99830.34
2018-08-09T01:32:33.679Z,99824.64
2018-08-09T01:35:01.392Z,99823.83
2018-08-09T01:37:29.041Z,99824.08
2018-08-09T01:39:56.688Z,99825.49
2018-08-09T01:42:35.603Z,99825.77
2018-08-09T01:45:03.371Z,99831.05
2018-08-09T01:47:31.016Z,99830.23
2018-08-09T01:49:58.701Z,99831.41
2018-08-09T01:52:26.433Z,99829.46
2018-08-09T01:54:54.103Z,99835.73
2018-08-09T01:57:21.749Z,99836.20
2018-08-09T01:59:49.432Z,99842.00
2018-08-09T02:02:17.093Z,99837.27
2018-08-09T02:04:44.860Z,99844.92
2018-08-09T02:07:12.471Z,99850.91
2018-08-09T02:09:40.086Z,99849.48
2018-08-09T02:12:07.745Z,99850.83
2018-08-09T02:14:35.415Z,99844.78
2018-08-09T02:17:03.070Z,99854.27
2018-08-09T02:19:30.778Z,99848.62
2018-08-09T02:21:58.453Z,99854.84
2018-08-09T02:24:26.180Z,99858.30
2018-08-09T02:26:53.961Z,99852.02
2018-08-09T02:29:21.636Z,99859.34
2018-08-09T02:31:49.331Z,99856.90
2018-08-09T02:34:17.016Z,99857.67
2018-08-09T02:36:44.706Z,99862.22
2018-08-09T02:39:12.446Z,99857.84
2018-08-09T02:41:40.089Z,99864.86
2018-08-09T02:44:07.779Z,99860.01
2018-08-09T02:46:35.874Z,99864.92
2018-08-09T02:49:03.679Z,99869.02
2018-08-09T02:51:31.353Z,99870.08
2018-08-09T02:53:59.015Z,99870.95
2018-08-09T02:56:26.682Z,99877.88
2018-08-09T02:58:54.426Z,99876.23
2018-08-09T03:01:22.141Z,99883.56
2018-08-09T03:03:49.777Z,99881.32
2018-08-09T03:06:17.445Z,99879.78
2018-08-09T03:08:45.190Z,99890.16
2018-08-09T03:11:12.962Z,99890.82
2018-08-09T03:13:40.927Z,99890.22
2018-08-09T03:16:08.624Z,99885.77
2018-08-09T03:18:36.285Z,99892.30
2018-08-09T03:21:03.964Z,99893.70
2018-08-09T03:23:31.605Z,99899.44
2018-08-09T03:25:59.265Z,99901.34
2018-08-09T03:28:26.989Z,99896.35
2018-08-09T03:30:54.669Z,99900.04
2018-08-09T03:33:22.324Z,99898.41
2018-08-09T03:35:49.994Z,99895.94
2018-08-09T03:38:17.641Z,99889.81
2018-08-09T03:40:45.349Z,99899.09
2018-08-09T03:43:13.021Z,99899.50
2018-08-09T03:45:40.686Z,99885.95
2018-08-09T03:48:08.454Z,99878.09
2018-08-09T03:50:36.122Z,99883.64
2018-08-09T03:53:03.901Z,99885.77
2018-08-09T03:55:31.566Z,99873.73
2018-08-09T03:57:59.685Z,99881.16
2018-08-09T04:00:27.318Z,99880.91
2018-08-09T04:02:54.969Z,99886.83
2018-08-09T04:05:22.677Z,99879.80
2018-08-09T04:07:50.328Z,99883.11
2018-08-09T04:10:18.037Z,99883.65
2018-08-09T04:12:45.690Z,99884.34
2018-08-09T04:15:13.416Z,99883.85
2018-08-09T04:17:41.057Z,99892.42
2018-08-09T04:20:08.738Z,99886.23
2018-08-09T04:22:36.411Z,99890.41
2018-08-09T04:25:04.698Z,99895.70
2018-08-09T04:27:32.341Z,99894.33
2018-08-09T04:30:00.127Z,99884.13
2018-08-09T04:32:27.803Z,99882.02
2018-08-09T04:34:55.490Z,99882.44
2018-08-09T04:37:23.167Z,99885.82
2018-08-09T04:39:50.874Z,99888.03
2018-08-09T04:42:18.588Z,99884.62
2018-08-09T04:44:46.245Z,99877.47
2018-08-09T04:47:13.938Z,99886.68
2018-08-09T04:49:41.676Z,99891.62
2018-08-09T04:52:09.313Z,99901.80
2018-08-09T04:54:36.957Z,99899.00
2018-08-09T04:57:04.662Z,99893.09
2018-08-09T04:59:32.305Z,99908.39
2018-08-09T05:02:00.018Z,99914.58
2018-08-09T05:04:27.669Z,99922.83
2018-08-09T05:06:55.323Z,99934.54
2018-08-09T05:09:23.024Z,99936.25
2018-08-09T05:11:50.705Z,99926.55
2018-08-09T05:14:18.353Z,99938.75
2018-08-09T05:16:46.018Z,99927.96
2018-08-09T05:19:13.663Z,99927.59
2018-08-09T05:21:41.349Z,99930.16
2018-08-09T05:24:09.010Z,99930.02
2018-08-09T05:26:36.654Z,99929.30
2018-08-09T05:29:04.327Z,99930.58
2018-08-09T05:31:32.071Z,99930.89
2018-08-09T05:33:59.790Z,99923.22
2018-08-09T05:36:27.589Z,99923.19
2018-08-09T05:38:55.286Z,99917.27
2018-08-09T05:41:22.936Z,99924.27
2018-08-09T05:43:50.634Z,99937.38
2018-08-09T05:46:18.330Z,99938.88
2018-08-09T05:48:46.063Z,99950.33
2018-08-09T05:51:13.749Z,99947.49
2018-08-09T05:53:41.449Z,99955.44
2018-08-09T05:56:09.197Z,99959.34
2018-08-09T05:58:37.376Z,99952.20
2018-08-09T06:01:05.057Z,99961.52
2018-08-09T06:03:32.777Z,99954.84
2018-08-09T06:06:00.446Z,99954.48
2018-08-09T06:08:28.107Z,99951.60
2018-08-09T06:10:55.798Z,99955.30
2018-08-09T06:13:23.450Z,99954.37
2018-08-09T06:15:51.154Z,99962.56
2018-08-09T06:18:18.809Z,99957.55
2018-08-09T06:20:46.494Z,99962.11
2018-08-09T06:23:14.197Z,99971.53
2018-08-09T06:25:41.842Z,99973.24
2018-08-09T06:28:09.594Z,99974.00
2018-08-09T06:30:37.278Z,99972.58
2018-08-09T06:33:05.225Z,99973.38
2018-08-09T06:35:32.946Z,99975.52
2018-08-09T06:38:00.673Z,99976.02
2018-08-09T06:40:28.390Z,99970.36
2018-08-09T06:42:56.105Z,99975.23
2018-08-09T06:45:23.761Z,99967.86
2018-08-09T06:47:51.870Z,99970.72
2018-08-09T06:50:19.532Z,99971.37
2018-08-09T06:52:47.201Z,99963.14
2018-08-09T06:55:14.893Z,99965.39
2018-08-09T06:57:42.546Z,99962.74
2018-08-09T07:00:11.988Z,99969.74
2018-08-09T07:02:39.893Z,99973.76
2018-08-09T07:05:07.862Z,99970.66
2018-08-09T07:07:35.557Z,99969.98
2018-08-09T07:10:03.433Z,99978.77
2018-08-09T07:12:31.162Z,99985.96
2018-08-09T07:14:58.929Z,99983.49
2018-08-09T07:17:26.651Z,99980.64
2018-08-09T07:19:54.322Z,100004.20
2018-08-09T07:22:22.009Z,99991.55
2018-08-09T07:24:49.693Z,99990.62
2018-08-09T07:27:17.367Z,99990.77
2018-08-09T07:29:45.062Z,99985.97
2018-08-09T07:32:13.001Z,99983.48
2018-08-09T07:34:40.674Z,99990.20
2018-08-09T07:37:08.440Z,99990.67
2018-08-09T07:39:36.314Z,99986.37
2018-08-09T07:42:03.893Z,99986.44
2018-08-09T07:44:31.564Z,99987.91
2018-08-09T07:46:59.297Z,99993.92
2018-08-09T07:49:27.047Z,99990.83
2018-08-09T07:51:54.720Z,99986.95
2018-08-09T07:54:22.404Z,99985.21
2018-08-09T07:56:50.061Z,99988.66
2018-08-09T07:59:17.829Z,99990.55
2018-08-09T08:01:45.506Z,99987.30
2018-08-09T08:04:13.241Z,99988.06
2018-08-09T08:06:40.945Z,99977.28
2018-08-09T08:09:10.329Z,99980.04
2018-08-09T08:11:38.056Z,99984.45
2018-08-09T08:14:05.874Z,99984.44
2018-08-09T08:16:33.735Z,99997.52
2018-08-09T08:19:01.417Z,100001.20
2018-08-09T08:21:29.149Z,99992.11
2018-08-09T08:23:56.830Z,99988.17
2018-08-09T08:26:24.493Z,99991.70
2018-08-09T08:28:52.222Z,99992.31
2018-08-09T08:31:19.921Z,99992.13
2018-08-09T08:33:47.610Z,99987.38
2018-08-09T08:36:15.348Z,99985.70
2018-08-09T08:38:43.010Z,99991.40
2018-08-09T08:41:10.807Z,99986.14
2018-08-09T08:43:38.513Z,99973.77
2018-08-09T08:46:06.261Z,99981.34
2018-08-09T08:48:33.972Z,99972.28
2018-08-09T08:51:01.650Z,99986.00
2018-08-09T08:53:29.578Z,99990.30
2018-08-09T08:55:57.418Z,99984.89
2018-08-09T08:58:25.174Z,99989.51
2018-08-09T09:00:52.908Z,99975.52
2018-08-09T09:03:20.691Z,99981.02
2018-08-09T09:05:48.414Z,99980.66
2018-08-09T09:08:16.107Z,99976.00
2018-08-09T09:10:43.848Z,99984.72
2018-08-09T09:13:11.722Z,99985.63
2018-08-09T09:15:39.458Z,99967.10
2018-08-09T09:18:07.168Z,99967.33
2018-08-09T09:20:34.830Z,99980.13
2018-08-09T09:23:02.577Z,99976.08
2018-08-09T09:25:30.230Z,99966.84
2018-08-09T09:27:57.901Z,99969.67
2018-08-09T09:30:25.650Z,99960.03
2018-08-09T09:32:53.368Z,99960.08
2018-08-09T09:35:21.330Z,99957.58
2018-08-09T09:37:49.387Z,99960.74
2018-08-09T09:40:17.148Z,99970.42
2018-08-09T09:42:44.818Z,99967.72
2018-08-09T09:45:12.496Z,99961.05
2018-08-09T09:47:40.172Z,99963.61
2018-08-09T09:50:09.317Z,99969.49
2018-08-09T09:52:36.989Z,99956.66
2018-08-09T09:55:05.151Z,99955.48
2018-08-09T09:57:32.839Z,99960.66
2018-08-09T10:00:00.505Z,99958.14
2018-08-09T10:02:28.203Z,99952.67
2018-08-09T10:04:55.896Z,99945.73
2018-08-09T10:07:23.649Z,99947.41
2018-08-09T10:09:51.353Z,99944.17
2018-08-09T10:12:19.022Z,99952.48
2018-08-09T10:14:46.765Z,99941.47
2018-08-09T10:17:14.430Z,99950.25
2018-08-09T10:19:42.162Z,99950.92
2018-08-09T10:22:09.848Z,99945.07
2018-08-09T10:24:37.534Z,99948.37
2018-08-09T10:27:05.290Z,99943.38
2018-08-09T10:29:32.984Z,99938.67
2018-08-09T10:32:00.750Z,99946.66
2018-08-09T10:34:28.429Z,99938.16
2018-08-09T10:36:56.090Z,99932.56
2018-08-09T10:39:23.794Z,99930.41
2018-08-09T10:41:51.858Z,99932.84
2018-08-09T10:44:19.566Z,99931.31
2018-08-09T10:46:47.574Z,99939.97
2018-08-09T10:49:15.257Z,99931.87
2018-08-09T10:51:42.967Z,99933.46
2018-08-09T10:54:10.789Z,99921.30
2018-08-09T10:56:38.556Z,99917.81
2018-08-09T10:59:06.244Z,99917.45
2018-08-09T11:01:33.933Z,99916.62
2018-08-09T11:04:01.695Z,99906.55
2018-08-09T11:06:29.422Z,99907.53
2018-08-09T11:08:57.164Z,99912.83
2018-08-09T11:11:24.851Z,99906.94
2018-08-09T11:13:52.555Z,99908.86
2018-08-09T11:16:20.307Z,99906.03
2018-08-09T11:18:47.998Z,99919.77
2018-08-09T11:21:15.778Z,99910.27
2018-08-09T11:23:43.585Z,99911.90
2018-08-09T11:26:11.265Z,99917.58
2018-08-09T11:28:40.451Z,99913.47
2018-08-09T11:31:08.204Z,99904.40
2018-08-09T11:33:35.937Z,99896.98
2018-08-09T11:36:03.765Z,99895.17
2018-08-09T11:38:31.453Z,99890.38
2018-08-09T11:40:59.179Z,99898.20
2018-08-09T11:43:26.866Z,99904.73
2018-08-09T11:45:54.557Z,99902.47
2018-08-09T11:48:22.220Z,99905.95
2018-08-09T11:50:49.890Z,99904.11
2018-08-09T11:53:17.609Z,99906.17
2018-08-09T11:55:45.318Z,99901.48
2018-08-09T11:58:12.996Z,99908.98
2018-08-09T12:00:40.666Z,99902.01
2018-08-09T12:03:08.320Z,99898.73
2018-08-09T12:05:36.057Z,99890.20
2018-08-09T12:08:03.790Z,99899.73
2018-08-09T12:10:31.453Z,99893.06
2018-08-09T12:12:59.126Z,99890.35
2018-08-09T12:15:26.871Z,99896.53
2018-08-09T12:17:54.594Z,99883.21
2018-08-09T12:20:22.327Z,99888.87
2018-08-09T12:22:50.427Z,99884.14
2018-08-09T12:25:18.114Z,99883.45
2018-08-09T12:27:45.787Z,99877.59
2018-08-09T12:30:14.952Z,99876.74
2018-08-09T12:32:43.226Z,99882.09
2018-08-09T12:35:11.912Z,99877.63
2018-08-09T12:37:40.406Z,99871.31
2018-08-09T12:40:09.178Z,99874.84
2018-08-09T12:42:37.266Z,99862.23
2018-08-09T12:45:05.919Z,99874.47
2018-08-09T12:47:33.722Z,99862.09
2018-08-09T12:50:01.474Z,99859.64
2018-08-09T12:52:29.165Z,99852.72
2018-08-09T12:54:57.774Z,99854.16
2018-08-09T12:57:25.474Z,99852.72
2018-08-09T12:59:53.169Z,99843.44
2018-08-09T13:02:20.934Z,99845.27
2018-08-09T13:04:48.643Z,99854.77
2018-08-09T13:07:16.357Z,99854.94
2018-08-09T13:09:44.061Z,99860.45
2018-08-09T13:12:11.754Z,99860.81
2018-08-09T13:14:39.500Z,99866.89
2018-08-09T13:17:07.381Z,99864.05
2018-08-09T13:19:35.101Z,99863.63
2018-08-09T13:22:02.845Z,99865.14
2018-08-09T13:24:30.566Z,99869.03
2018-08-09T13:26:58.277Z,99867.92
2018-08-09T13:29:26.002Z,99866.65
2018-08-09T13:31:53.762Z,99862.56
2018-08-09T13:34:21.541Z,99858.91
2018-08-09T13:36:49.653Z,99859.13
2018-08-09T13:39:17.456Z,99863.59
2018-08-09T13:41:45.529Z,99858.13
2018-08-09T13:44:13.705Z,99859.39
2018-08-09T13:46:41.488Z,99858.72
2018-08-09T13:49:09.299Z,99855.42
2018-08-09T13:51:37.084Z,99848.75
2018-08-09T13:54:04.941Z,99850.73
2018-08-09T13:56:32.669Z,99856.14
2018-08-09T13:59:00.802Z,99853.31
2018-08-09T14:01:28.543Z,99854.26
2018-08-09T14:03:56.288Z,99843.86
2018-08-09T14:06:24.077Z,99860.33
2018-08-09T14:08:51.902Z,99855.28
2018-08-09T14:11:19.981Z,99858.72
2018-08-09T14:13:47.757Z,99856.33
2018-08-09T14:16:15.490Z,99852.39
2018-08-09T14:18:43.276Z,99850.33
2018-08-09T14:21:11.118Z,99849.55
2018-08-09T14:23:38.808Z,99855.87
2018-08-09T14:26:06.585Z,99848.64
2018-08-09T14:28:34.354Z,99845.37
2018-08-09T14:31:02.150Z,99841.44
2018-08-09T14:33:30.715Z,99844.44
2018-08-09T14:35:58.547Z,99841.00
2018-08-09T14:38:26.444Z,99845.37
2018-08-09T14:40:54.248Z,99844.80
2018-08-09T14:43:22.467Z,99841.56
2018-08-09T14:45:50.249Z,99836.16
2018-08-09T14:48:17.964Z,99839.03
2018-08-09T14:50:45.727Z,99834.09
2018-08-09T14:53:13.847Z,99836.21
2018-08-09T14:55:41.619Z,99830.70
2018-08-09T14:58:09.394Z,99833.71
2018-08-09T15:00:37.115Z,99836.94
2018-08-09T15:03:04.918Z,99834.98
2018-08-09T15:05:32.734Z,99832.51
2018-08-09T15:08:00.406Z,99840.63
2018-08-09T15:10:28.373Z,99843.88
2018-08-09T15:12:56.164Z,99844.80
2018-08-09T15:15:23.897Z,99837.88
2018-08-09T15:17:51.592Z,99842.98
2018-08-09T15:20:19.281Z,99837.07
2018-08-09T15:22:47.042Z,99836.02
2018-08-09T15:25:14.785Z,99826.94
2018-08-09T15:27:42.561Z,99838.58
2018-08-09T15:30:13.107Z,99835.68
2018-08-09T15:32:41.007Z,99835.92
2018-08-09T15:35:08.825Z,99840.20
2018-08-09T15:37:36.601Z,99844.27
2018-08-09T15:40:05.338Z,99832.59
2018-08-09T15:42:33.085Z,99836.41
2018-08-09T15:45:00.848Z,99835.55
2018-08-09T15:47:28.698Z,99842.22
2018-08-09T15:49:56.349Z,99827.33
2018-08-09T15:52:24.076Z,99829.91
2018-08-09T15:54:51.866Z,99837.36
2018-08-09T15:57:19.610Z,99839.30
2018-08-09T15:59:47.335Z,99836.13
2018-08-09T16:02:14.999Z,99835.29
2018-08-09T16:04:42.806Z,99830.91
2018-08-09T16:07:10.581Z,99842.41
2018-08-09T16:09:38.285Z,99844.51
2018-08-09T16:12:06.026Z,99839.62
2018-08-09T16:14:33.702Z,99840.70
2018-08-09T16:17:01.434Z,99846.55
2018-08-09T16:19:29.286Z,99840.62
2018-08-09T16:21:57.015Z,99842.95
2018-08-09T16:24:24.992Z,99841.03
2018-08-09T16:26:52.733Z,99854.53
2018-08-09T16:29:20.434Z,99856.18
2018-08-09T16:31:48.189Z,99854.97
2018-08-09T16:34:15.936Z,99861.34
2018-08-09T16:36:43.882Z,99864.14
2018-08-09T16:39:13.135Z,99873.17
2018-08-09T16:41:40.970Z,99867.77
2018-08-09T16:44:09.388Z,99873.67
2018-08-09T16:46:37.130Z,99871.91
2018-08-09T16:49:05.282Z,99874.48
2018-08-09T16:51:33.150Z,99870.70
2018-08-09T16:54:00.827Z,99873.07
2018-08-09T16:56:28.975Z,99874.15
2018-08-09T16:58:56.792Z,99878.89
2018-08-09T17:01:25.155Z,99882.39
2018-08-09T17:03:53.096Z,99884.87
2018-08-09T17:06:20.915Z,99883.20
2018-08-09T17:08:49.097Z,99886.48
2018-08-09T17:11:16.926Z,99887.51
2018-08-09T17:13:44.681Z,99882.17
2018-08-09T17:16:12.535Z,99886.86
2018-08-09T17:18:40.297Z,99876.12
2018-08-09T17:21:08.161Z,99884.33
2018-08-09T17:23:35.984Z,99885.48
2018-08-09T17:26:03.816Z,99888.15
2018-08-09T17:28:31.594Z,99894.66
2018-08-09T17:30:59.374Z,99898.60
2018-08-09T17:33:27.113Z,99895.83
2018-08-09T17:35:54.932Z,99899.19
2018-08-09T17:38:22.730Z,99906.60
2018-08-09T17:40:50.416Z,99910.28
2018-08-09T17:43:18.209Z,99906.28
2018-08-09T17:45:46.006Z,99903.66
2018-08-09T17:48:13.980Z,99909.98
2018-08-09T17:50:41.706Z,99906.34
2018-08-09T17:53:09.421Z,99910.61
2018-08-09T17:55:37.308Z,99918.34
2018-08-09T17:58:05.284Z,99909.45
2018-08-09T18:00:34.165Z,99907.59
2018-08-09T18:03:02.018Z,99917.92
2018-08-09T18:05:29.762Z,99924.02
2018-08-09T18:07:59.034Z,99934.03
2018-08-09T18:10:29.219Z,99937.88
2018-08-09T18:12:57.058Z,99944.09
2018-08-09T18:15:26.062Z,99942.91
2018-08-09T18:17:54.116Z,99944.89
2018-08-09T18:20:24.895Z,99952.58
2018-08-09T18:22:52.749Z,99944.27
2018-08-09T18:25:20.465Z,99955.09
2018-08-09T18:27:48.217Z,99965.55
2018-08-09T18:30:17.973Z,99966.85
2018-08-09T18:32:45.764Z,99964.91
2018-08-09T18:35:14.925Z,99964.89
2018-08-09T18:37:42.889Z,99969.02
2018-08-09T18:40:16.411Z,99966.42
2018-08-09T18:42:44.178Z,99959.31
2018-08-09T18:45:12.144Z,99964.55
2018-08-09T18:47:40.229Z,99960.53
2018-08-09T18:50:11.474Z,99960.20
2018-08-09T18:52:39.281Z,99955.53
2018-08-09T18:55:07.736Z,99958.30
2018-08-09T18:57:35.548Z,99960.00
2018-08-09T19:00:04.890Z,99961.08
2018-08-09T19:02:32.768Z,99960.66
2018-08-09T19:05:00.653Z,99967.17
2018-08-09T19:07:28.405Z,99966.91
2018-08-09T19:09:56.235Z,99968.66
2018-08-09T19:12:23.989Z,99969.94
2018-08-09T19:14:51.773Z,99965.23
2018-08-09T19:17:19.532Z,99969.09
2018-08-09T19:19:47.261Z,99965.08
2018-08-09T19:22:15.018Z,99974.40
2018-08-09T19:24:42.849Z,99975.35
2018-08-09T19:27:10.650Z,99972.73
2018-08-09T19:29:38.467Z,99970.16
2018-08-09T19:32:06.242Z,99974.50
2018-08-09T19:34:34.073Z,99973.05
2018-08-09T19:37:01.896Z,99981.03
2018-08-09T19:39:29.689Z,99977.33
2018-08-09T19:41:57.446Z,99974.62
2018-08-09T19:44:25.170Z,99978.55
2018-08-09T19:46:52.973Z,99978.76
2018-08-09T19:49:20.753Z,99976.03
2018-08-09T19:51:48.511Z,99968.39
2018-08-09T19:54:16.228Z,99977.00
2018-08-09T19:56:43.921Z,99979.45
2018-08-09T19:59:11.645Z,99979.19
2018-08-09T20:01:39.320Z,99977.91
2018-08-09T20:04:07.156Z,99977.05
2018-08-09T20:06:34.967Z,99979.91
2018-08-09T20:09:03.816Z,99978.82
2018-08-09T20:11:37.217Z,99984.89
2018-08-09T20:14:05.558Z,99983.27
2018-08-09T20:16:33.394Z,99983.55
2018-08-09T20:19:01.396Z,99987.39
2018-08-09T20:21:29.093Z,99979.13
2018-08-09T20:23:56.840Z,99983.92
2018-08-09T20:26:24.553Z,99981.71
2018-08-09T20:28:52.273Z,99991.97
2018-08-09T20:31:20.024Z,99990.34
2018-08-09T20:33:47.712Z,99998.63
2018-08-09T20:36:15.485Z,99998.42
2018-08-09T20:38:43.254Z,99992.33
2018-08-09T20:41:11.055Z,100007.50
2018-08-09T20:43:38.834Z,100010.55
2018-08-09T20:46:06.751Z,100005.57
2018-08-09T20:48:34.516Z,100006.43
2018-08-09T20:51:02.321Z,100013.33
2018-08-09T20:53:30.062Z,100006.41
2018-08-09T20:55:57.828Z,100011.94
2018-08-09T20:58:25.589Z,100010.55
2018-08-09T21:00:53.442Z,100006.43
2018-08-09T21:03:21.136Z,100016.58
2018-08-09T21:05:48.865Z,100020.15
2018-08-09T21:08:16.876Z,100023.45
2018-08-09T21:10:44.601Z,100020.95
2018-08-09T21:13:12.363Z,100027.86
2018-08-09T21:15:40.218Z,100028.33
2018-08-09T21:18:08.264Z,100022.81
2018-08-09T21:20:35.940Z,100029.47
2018-08-09T21:23:03.661Z,100035.23
2018-08-09T21:25:31.340Z,100033.59
2018-08-09T21:27:59.052Z,100036.91
2018-08-09T21:30:26.847Z,100033.25
2018-08-09T21:32:54.647Z,100028.27
2018-08-09T21:35:22.384Z,100021.47
2018-08-09T21:37:50.114Z,100020.09
2018-08-09T21:40:17.871Z,100028.66
2018-08-09T21:42:45.609Z,100029.48
2018-08-09T21:45:16.830Z,100032.23
2018-08-09T21:47:44.551Z,100030.03
2018-08-09T21:50:17.170Z,100034.61
2018-08-09T21:52:45.031Z,100032.12
2018-08-09T21:55:13.315Z,100035.14
2018-08-09T21:57:41.982Z,100038.73
2018-08-09T22:00:16.417Z,100040.89
2018-08-09T22:02:44.154Z,100035.63
2018-08-09T22:05:17.395Z,100043.34
2018-08-09T22:07:50.675Z,100046.84
2018-08-09T22:10:23.788Z,100048.83
2018-08-09T22:12:57.870Z,100050.80
2018-08-09T22:15:31.081Z,100049.68
2018-08-09T22:18:04.350Z,100046.96
2018-08-09T22:20:37.514Z,100046.73
2018-08-09T22:23:05.550Z,100044.98
2018-08-09T22:25:33.305Z,100051.89
2018-08-09T22:28:00.954Z,100050.29
2018-08-09T22:30:28.663Z,100050.56
2018-08-09T22:32:56.342Z,100048.94
2018-08-09T22:35:24.090Z,100048.11
2018-08-09T22:37:51.751Z,100050.87
2018-08-09T22:40:19.439Z,100051.16
2018-08-09T22:42:47.120Z,100050.04
2018-08-09T22:45:14.790Z,100050.37
2018-08-09T22:47:42.514Z,100052.85
2018-08-09T22:50:10.206Z,100046.52
2018-08-09T22:52:37.916Z,100051.68
2018-08-09T22:55:05.662Z,100048.66
2018-08-09T22:57:33.332Z,100042.53
2018-08-09T23:00:01.099Z,100044.67
2018-08-09T23:02:28.858Z,100046.31
2018-08-09T23:04:56.635Z,100044.02
2018-08-09T23:07:24.388Z,100036.57
2018-08-09T23:09:52.104Z,100043.16
2018-08-09T23:12:19.813Z,100045.05
2018-08-09T23:14:47.534Z,100047.79
2018-08-09T23:17:15.263Z,100043.81
2018-08-09T23:19:42.963Z,100044.34
2018-08-09T23:22:10.745Z,100043.25
2018-08-09T23:24:38.449Z,100050.98
2018-08-09T23:27:06.181Z,100052.86
2018-08-09T23:29:33.897Z,100050.66
2018-08-09T23:32:01.586Z,100052.23
2018-08-09T23:34:29.229Z,100046.70
2018-08-09T23:36:56.930Z,100047.15
2018-08-09T23:39:24.598Z,100048.28
2018-08-09T23:41:52.258Z,100059.41
2018-08-09T23:44:19.961Z,100058.80
2018-08-09T23:46:47.698Z,100061.60
2018-08-09T23:49:15.362Z,100067.63
2018-08-09T23:51:43.030Z,100069.15
2018-08-09T23:54:10.670Z,100065.03
2018-08-09T23:56:38.361Z,100062.78
2018-08-09T23:59:06.050Z,100064.39
